Time;durP1;ratioP1;P1;durP2;ratioP2;P2;SDS_P1;SDS_P2;PMS_P1;PMS_P2;Temp;Humidity;BMP_temperature;BMP_pressure;BME280_temperature;BME280_humidity;BME280_pressure;Samples;Min_cycle;Max_cycle;Signal;HPM_P1;HPM_P2
2024/01/28 00:01:32;;;;;;;22.95;7.45;;;;;;;;;;5133037;27;20038;-88
2024/01/28 00:03:58;;;;;;;;;;;;;;;;;;5103749;28;20040;-85
2024/01/28 00:06:24;;;;;;;21.40;7.00;;;;;;;;;;5121720;27;19919;-87
2024/01/28 00:08:50;;;;;;;;;;;;;;;;;;5113009;27;20570;-89
2024/01/28 00:11:16;;;;;;;26.48;7.25;;;;;;;;;;5134230;27;19923;-88
2024/01/28 00:13:42;;;;;;;19.58;7.45;;;;;;;;;;5131027;27;20752;-89
2024/01/28 00:16:15;;;;;;;18.95;7.95;;;;;;;;;;5096355;28;20151;-88
2024/01/28 00:18:41;;;;;;;23.10;7.57;;;;;;;;;;5130327;27;20047;-88
2024/01/28 00:21:07;;;;;;;28.20;7.85;;;;;;;;;;5122201;27;20044;-88
2024/01/28 00:23:34;;;;;;;19.77;7.78;;;;;;;;;;5096301;27;20035;-88
2024/01/28 00:26:01;;;;;;;;;;;;;;;;;;5089569;28;20043;-89
2024/01/28 00:28:28;;;;;;;24.42;8.95;;;;;;;;;;5113115;27;19926;-88
2024/01/28 00:30:54;;;;;;;;;;;;;;;;;;5099443;27;20055;-88
2024/01/28 00:33:20;;;;;;;20.80;7.75;;;;;;;;;;5133233;27;19919;-89
2024/01/28 00:35:46;;;;;;;;;;;;;;;;;;5111871;28;20047;-88
2024/01/28 00:38:12;;;;;;;20.13;7.47;;;;;;;;;;5113134;27;19926;-88
2024/01/28 00:40:38;;;;;;;;;;;;;;;;;;5105245;28;20066;-88
2024/01/28 00:43:04;;;;;;;25.05;7.65;;;;;;;;;;5126484;27;19920;-88
2024/01/28 00:45:30;;;;;;;20.65;7.25;;;;;;;;;;5123511;27;20122;-87
2024/01/28 00:47:57;;;;;;;20.63;7.70;;;;;;;;;;5114724;27;20086;-87
2024/01/28 00:50:23;;;;;;;;;;;;;;;;;;5109928;28;20051;-88
2024/01/28 00:52:49;;;;;;;21.65;7.95;;;;;;;;;;5130597;27;20077;-87
2024/01/28 00:55:15;;;;;;;;;;;;;;;;;;5133512;27;20177;-88
2024/01/28 00:57:41;;;;;;;27.35;8.63;;;;;;;;;;5111731;28;19920;-88
2024/01/28 01:00:08;;;;;;;19.17;8.57;;;;;;;;;;5098828;27;20055;-89
2024/01/28 01:02:34;;;;;;;22.90;8.75;;;;;;;;;;5098444;28;20075;-88
2024/01/28 01:05:00;;;;;;;;;;;;;;;;;;5095400;28;20050;-88
2024/01/28 01:07:26;;;;;;;24.83;8.05;;;;;;;;;;5108415;28;19924;-88
2024/01/28 01:09:52;;;;;;;25.70;9.27;;;;;;;;;;5107471;27;20492;-88
2024/01/28 01:12:18;;;;;;;;;;;;;;;;;;5095654;28;20052;-88
2024/01/28 01:14:44;;;;;;;24.60;8.98;;;;;;;;;;5099161;27;19919;-88
2024/01/28 01:17:10;;;;;;;;;;;;;;;;;;5110264;28;20043;-87
2024/01/28 01:19:36;;;;;;;24.15;7.93;;;;;;;;;;5100235;28;19927;-87
2024/01/28 01:22:03;;;;;;;;;;;;;;;;;;5091375;28;20048;-87
2024/01/28 01:24:29;;;;;;;22.60;7.68;;;;;;;;;;5108038;28;19973;-89
2024/01/28 01:26:55;;;;;;;23.40;8.07;;;;;;;;;;5123528;27;20096;-87
2024/01/28 01:29:21;;;;;;;23.00;8.23;;;;;;;;;;5112047;27;21175;-88
2024/01/28 01:31:47;;;;;;;20.27;8.48;;;;;;;;;;5113401;27;20047;-88
2024/01/28 01:34:13;;;;;;;;;;;;;;;;;;5097259;27;20070;-89
2024/01/28 01:36:43;;;;;;;26.42;8.45;;;;;;;;;;5113783;28;20394;-88
2024/01/28 01:39:09;;;;;;;30.27;8.82;;;;;;;;;;5110574;27;20096;-88
2024/01/28 01:41:35;;;;;;;;;;;;;;;;;;5113136;28;20047;-89
2024/01/28 01:44:01;;;;;;;28.58;9.15;;;;;;;;;;5110855;27;19963;-88
2024/01/28 01:46:28;;;;;;;24.02;8.43;;;;;;;;;;5104938;27;20083;-88
2024/01/28 01:48:54;;;;;;;24.98;9.38;;;;;;;;;;5110962;27;20054;-88
2024/01/28 01:51:23;;;;;;;21.67;9.48;;;;;;;;;;5134900;27;20495;-88
2024/01/28 01:53:49;;;;;;;21.30;10.10;;;;;;;;;;5082606;28;20050;-88
2024/01/28 01:56:15;;;;;;;27.60;9.20;;;;;;;;;;5128473;27;20041;-88
2024/01/28 01:58:42;;;;;;;29.42;9.98;;;;;;;;;;5104460;27;20088;-88
2024/01/28 02:01:09;;;;;;;29.38;8.98;;;;;;;;;;5135559;27;20043;-88
2024/01/28 02:03:35;;;;;;;23.02;9.32;;;;;;;;;;5118718;28;20129;-89
2024/01/28 02:06:01;;;;;;;;;;;;;;;;;;5105308;28;20076;-88
2024/01/28 02:08:28;;;;;;;27.80;9.77;;;;;;;;;;5117513;27;19918;-88
2024/01/28 02:10:54;;;;;;;23.83;8.85;;;;;;;;;;5114551;28;20043;-88
2024/01/28 02:13:20;;;;;;;26.95;9.38;;;;;;;;;;5134677;27;20556;-89
2024/01/28 02:15:46;;;;;;;;;;;;;;;;;;5105094;28;20520;-88
2024/01/28 02:18:12;;;;;;;21.20;9.77;;;;;;;;;;5128380;28;19924;-88
2024/01/28 02:20:38;;;;;;;;;;;;;;;;;;5107167;28;20110;-86
2024/01/28 02:23:05;;;;;;;25.25;8.75;;;;;;;;;;5114496;28;20018;-89
2024/01/28 02:25:33;;;;;;;29.00;9.95;;;;;;;;;;5114732;28;20043;-88
2024/01/28 02:27:59;;;;;;;23.92;9.32;;;;;;;;;;5114544;28;20499;-88
2024/01/28 02:30:25;;;;;;;;;;;;;;;;;;5111530;28;20150;-87
2024/01/28 02:32:52;;;;;;;23.83;9.15;;;;;;;;;;5111525;28;19926;-88
2024/01/28 02:35:18;;;;;;;20.83;8.25;;;;;;;;;;5110946;28;20055;-87
2024/01/28 02:37:44;;;;;;;22.60;8.15;;;;;;;;;;5086136;28;20036;-88
2024/01/28 02:40:10;;;;;;;;;;;;;;;;;;5094965;28;20047;-88
2024/01/28 02:42:36;;;;;;;22.33;8.48;;;;;;;;;;5111760;28;19931;-88
2024/01/28 02:45:02;;;;;;;22.50;9.60;;;;;;;;;;5110945;28;20058;-88
2024/01/28 02:47:29;;;;;;;21.95;8.10;;;;;;;;;;5114835;28;20134;-88
2024/01/28 02:49:55;;;;;;;;;;;;;;;;;;5114634;27;20043;-88
2024/01/28 02:52:21;;;;;;;19.65;8.40;;;;;;;;;;5135340;27;19969;-87
2024/01/28 02:54:47;;;;;;;;;;;;;;;;;;5118469;27;20101;-89
2024/01/28 02:57:13;;;;;;;19.58;8.60;;;;;;;;;;5114915;28;19967;-88
2024/01/28 02:59:39;;;;;;;19.38;8.85;;;;;;;;;;5088539;27;20074;-88
2024/01/28 03:02:05;;;;;;;21.63;8.95;;;;;;;;;;5097494;28;20050;-88
2024/01/28 03:04:31;;;;;;;;;;;;;;;;;;5115964;27;20077;-88
2024/01/28 03:06:57;;;;;;;24.48;8.50;;;;;;;;;;5113578;28;19920;-88
2024/01/28 03:09:24;;;;;;;24.48;9.43;;;;;;;;;;5098071;28;20082;-88
2024/01/28 03:11:50;;;;;;;21.90;8.52;;;;;;;;;;5097856;28;20070;-89
2024/01/28 03:14:16;;;;;;;20.00;8.60;;;;;;;;;;5098073;28;20049;-88
2024/01/28 03:16:42;;;;;;;;;;;;;;;;;;5114935;27;20046;-89
2024/01/28 03:19:09;;;;;;;32.58;9.48;;;;;;;;;;5115722;27;19927;-88
2024/01/28 03:21:35;;;;;;;22.52;9.07;;;;;;;;;;5112012;28;20043;-88
2024/01/28 03:24:00;;;;;;;;;;;;;;;;;;5081109;28;20047;-88
2024/01/28 03:26:27;;;;;;;25.48;10.13;;;;;;;;;;5097437;28;19920;-87
2024/01/28 03:28:53;;;;;;;;;;;;;;;;;;5117318;27;20468;-88
2024/01/28 03:31:19;;;;;;;22.92;8.98;;;;;;;;;;5102363;28;19927;-88
2024/01/28 03:33:45;;;;;;;;;;;;;;;;;;5080746;28;20066;-89
2024/01/28 03:36:11;;;;;;;22.60;8.65;;;;;;;;;;5095504;28;19920;-88
2024/01/28 03:38:39;;;;;;;29.42;10.55;;;;;;;;;;5097189;28;20086;-88
2024/01/28 03:41:05;;;;;;;23.67;8.50;;;;;;;;;;5096810;28;20472;-88
2024/01/28 03:43:31;;;;;;;;;;;;;;;;;;5109076;27;20067;-88
2024/01/28 03:45:57;;;;;;;18.70;9.20;;;;;;;;;;5116717;27;19926;-88
2024/01/28 03:48:23;;;;;;;;;;;;;;;;;;5117827;27;20039;-87
2024/01/28 03:50:49;;;;;;;20.05;9.25;;;;;;;;;;5133234;27;20393;-87
2024/01/28 03:53:15;;;;;;;19.23;7.88;;;;;;;;;;5117737;27;20161;-89
2024/01/28 03:55:43;;;;;;;;;;;;;;;;;;5117866;27;20043;-88
2024/01/28 03:58:10;;;;;;;19.00;7.30;;;;;;;;;;5116544;27;20004;-88
2024/01/28 04:00:37;;;;;;;22.02;8.32;;;;;;;;;;5116696;27;20051;-89
2024/01/28 04:03:03;;;;;;;16.85;8.98;;;;;;;;;;5116942;27;20085;-89
2024/01/28 04:05:29;;;;;;;17.52;8.38;;;;;;;;;;5099783;27;20046;-88
2024/01/28 04:07:55;;;;;;;;;;;;;;;;;;5134286;27;20051;-88
2024/01/28 04:10:21;;;;;;;22.40;8.70;;;;;;;;;;5117122;27;19926;-89
2024/01/28 04:12:48;;;;;;;25.23;7.95;;;;;;;;;;5133990;27;20054;-88
2024/01/28 04:15:14;;;;;;;22.95;7.30;;;;;;;;;;5113102;27;20073;-88
2024/01/28 04:17:40;;;;;;;20.95;8.02;;;;;;;;;;5099947;27;20050;-88
2024/01/28 04:20:08;;;;;;;18.75;8.00;;;;;;;;;;5115895;27;20065;-88
2024/01/28 04:22:34;;;;;;;28.88;8.63;;;;;;;;;;5100058;27;20047;-88
2024/01/28 04:25:00;;;;;;;;;;;;;;;;;;5100235;27;20110;-88
2024/01/28 04:27:26;;;;;;;28.08;9.55;;;;;;;;;;5116404;27;20473;-88
2024/01/28 04:29:52;;;;;;;;;;;;;;;;;;5099751;27;20055;-87
2024/01/28 04:32:18;;;;;;;25.25;9.20;;;;;;;;;;5102844;27;19920;-88
2024/01/28 04:34:44;;;;;;;;;;;;;;;;;;5090686;28;20431;-88
2024/01/28 04:37:10;;;;;;;23.15;9.65;;;;;;;;;;5125613;27;20026;-89
2024/01/28 04:39:36;;;;;;;;;;;;;;;;;;5076450;28;20157;-88
2024/01/28 04:42:03;;;;;;;24.67;9.27;;;;;;;;;;5108472;28;20005;-88
2024/01/28 04:44:29;;;;;;;27.02;9.57;;;;;;;;;;5102983;27;20042;-88
2024/01/28 04:46:57;;;;;;;22.35;8.70;;;;;;;;;;5078151;28;20126;-88
2024/01/28 04:49:23;;;;;;;24.63;8.38;;;;;;;;;;5075384;28;20051;-88
2024/01/28 04:51:50;;;;;;;27.52;8.65;;;;;;;;;;5068222;28;20086;-88
2024/01/28 04:54:16;;;;;;;19.17;9.00;;;;;;;;;;5075178;28;20056;-88
2024/01/28 04:56:42;;;;;;;22.15;10.02;;;;;;;;;;5075819;28;20048;-88
2024/01/28 04:59:08;;;;;;;;;;;;;;;;;;5092579;28;20047;-89
2024/01/28 05:01:35;;;;;;;23.80;9.13;;;;;;;;;;5108586;27;19920;-89
2024/01/28 05:04:01;;;;;;;22.73;9.15;;;;;;;;;;5099362;27;20091;-88
2024/01/28 05:06:34;;;;;;;;;;;;;;;;;;5132959;27;20039;-88
2024/01/28 05:09:02;;;;;;;26.65;9.18;;;;;;;;;;5132932;27;19932;-89
2024/01/28 05:11:28;;;;;;;29.50;9.23;;;;;;;;;;5099361;27;20046;-88
2024/01/28 05:13:54;;;;;;;22.70;8.90;;;;;;;;;;5098934;27;20078;-88
2024/01/28 05:16:21;;;;;;;;;;;;;;;;;;5089624;28;20044;-89
2024/01/28 05:18:47;;;;;;;23.83;9.82;;;;;;;;;;5084075;28;19974;-88
2024/01/28 05:21:13;;;;;;;;;;;;;;;;;;5076894;28;20058;-88
2024/01/28 05:23:39;;;;;;;24.33;9.90;;;;;;;;;;5094606;28;19920;-88
2024/01/28 05:26:05;;;;;;;;;;;;;;;;;;5058662;28;20401;-89
2024/01/28 05:28:31;;;;;;;24.92;9.75;;;;;;;;;;5075386;28;19920;-88
2024/01/28 05:30:57;;;;;;;;;;;;;;;;;;5074622;28;20496;-89
2024/01/28 05:33:23;;;;;;;27.37;11.13;;;;;;;;;;5095605;28;19920;-89
2024/01/28 05:35:49;;;;;;;30.95;10.80;;;;;;;;;;5102999;28;20358;-88
2024/01/28 05:38:15;;;;;;;29.05;10.10;;;;;;;;;;5078159;28;20040;-87
2024/01/28 05:40:41;;;;;;;;;;;;;;;;;;5107243;28;20058;-89
2024/01/28 05:43:07;;;;;;;27.92;9.77;;;;;;;;;;5095233;28;19920;-89
2024/01/28 05:45:34;;;;;;;23.13;12.32;;;;;;;;;;5112123;28;20047;-88
2024/01/28 05:48:01;;;;;;;29.23;10.00;;;;;;;;;;5094992;28;20047;-88
2024/01/28 05:50:31;;;;;;;27.92;11.57;;;;;;;;;;5111885;28;20135;-87
2024/01/28 05:52:57;;;;;;;16.83;8.65;;;;;;;;;;5112292;28;20040;-88
2024/01/28 05:55:23;;;;;;;;;;;;;;;;;;5095552;28;20048;-88
2024/01/28 05:57:49;;;;;;;27.75;10.25;;;;;;;;;;5112051;28;19923;-88
2024/01/28 06:00:16;;;;;;;26.42;9.60;;;;;;;;;;5092422;28;20043;-87
2024/01/28 06:02:43;;;;;;;33.22;14.95;;;;;;;;;;5098980;28;20043;-88
2024/01/28 06:05:09;;;;;;;26.73;13.23;;;;;;;;;;5098099;28;20452;-89
2024/01/28 06:07:35;;;;;;;;;;;;;;;;;;5098700;28;20051;-89
2024/01/28 06:10:01;;;;;;;25.30;11.73;;;;;;;;;;5115599;28;20081;-88
2024/01/28 06:12:27;;;;;;;24.83;9.23;;;;;;;;;;5098698;28;20056;-88
2024/01/28 06:14:53;;;;;;;24.58;9.57;;;;;;;;;;5115516;28;20082;-88
2024/01/28 06:17:19;;;;;;;;;;;;;;;;;;5115661;28;20399;-89
2024/01/28 06:19:45;;;;;;;31.73;11.77;;;;;;;;;;5114972;28;20356;-88
2024/01/28 06:22:11;;;;;;;;;;;;;;;;;;5115356;28;20043;-89
2024/01/28 06:24:44;;;;;;;22.55;9.10;;;;;;;;;;5115140;28;20006;-88
2024/01/28 06:27:10;;;;;;;22.58;8.77;;;;;;;;;;5136364;27;20055;-89
2024/01/28 06:29:36;;;;;;;21.85;8.32;;;;;;;;;;5102438;27;20111;-89
2024/01/28 06:32:02;;;;;;;;;;;;;;;;;;5119801;27;20093;-88
2024/01/28 06:34:29;;;;;;;19.20;8.40;;;;;;;;;;5118799;27;19924;-89
2024/01/28 06:36:55;;;;;;;23.67;11.90;;;;;;;;;;5118546;27;20043;-88
2024/01/28 06:39:21;;;;;;;19.63;7.65;;;;;;;;;;5116114;27;20035;-89
2024/01/28 06:41:48;;;;;;;;;;;;;;;;;;5102818;27;20054;-89
2024/01/28 06:44:14;;;;;;;24.67;8.70;;;;;;;;;;5115513;28;20341;-88
2024/01/28 06:46:41;;;;;;;19.52;7.80;;;;;;;;;;5081817;28;20047;-88
2024/01/28 06:49:07;;;;;;;;;;;;;;;;;;5081723;28;20126;-89
2024/01/28 06:51:33;;;;;;;19.35;8.20;;;;;;;;;;5132098;27;20014;-89
2024/01/28 06:53:59;;;;;;;21.35;7.85;;;;;;;;;;5081986;28;20047;-89
2024/01/28 06:56:25;;;;;;;22.83;8.35;;;;;;;;;;5098065;28;20073;-88
2024/01/28 06:58:51;;;;;;;22.35;8.63;;;;;;;;;;5118770;27;20087;-90
2024/01/28 07:01:17;;;;;;;;;;;;;;;;;;5101996;27;20058;-89
2024/01/28 07:03:43;;;;;;;19.10;8.40;;;;;;;;;;5136300;27;19919;-89
2024/01/28 07:06:14;;;;;;;19.20;8.05;;;;;;;;;;5097035;28;20047;-88
2024/01/28 07:08:40;;;;;;;16.02;6.97;;;;;;;;;;5114847;28;20047;-89
2024/01/28 07:11:06;;;;;;;;;;;;;;;;;;5118298;27;20047;-89
2024/01/28 07:13:32;;;;;;;15.88;7.15;;;;;;;;;;5118276;27;19946;-88
2024/01/28 07:15:58;;;;;;;;;;;;;;;;;;5101918;27;20054;-89
2024/01/28 07:18:24;;;;;;;17.52;7.88;;;;;;;;;;5117935;27;19919;-89
2024/01/28 07:20:50;;;;;;;;;;;;;;;;;;5112656;28;20052;-88
2024/01/28 07:23:16;;;;;;;16.25;8.43;;;;;;;;;;5114673;28;19972;-89
2024/01/28 07:25:42;;;;;;;;;;;;;;;;;;5098170;28;20051;-89
2024/01/28 07:28:08;;;;;;;22.83;8.30;;;;;;;;;;5117303;27;19968;-90
2024/01/28 07:30:34;;;;;;;20.70;7.28;;;;;;;;;;5096854;28;20102;-89
2024/01/28 07:33:00;;;;;;;;;;;;;;;;;;5081540;28;20058;-90
2024/01/28 07:35:26;;;;;;;22.13;7.13;;;;;;;;;;5097787;28;19923;-88
2024/01/28 07:37:52;;;;;;;;;;;;;;;;;;5097455;28;20373;-89
2024/01/28 07:40:18;;;;;;;23.67;8.00;;;;;;;;;;5096995;28;19927;-88
2024/01/28 07:42:44;;;;;;;;;;;;;;;;;;5108925;28;20493;-89
2024/01/28 07:45:10;;;;;;;21.88;6.97;;;;;;;;;;5097541;28;20071;-89
2024/01/28 07:47:36;;;;;;;;;;;;;;;;;;5081011;28;20061;-89
2024/01/28 07:50:03;;;;;;;17.50;6.20;;;;;;;;;;5096602;28;19927;-83
2024/01/28 07:52:29;;;;;;;24.80;6.93;;;;;;;;;;5079124;28;20108;-90
2024/01/28 07:54:55;;;;;;;17.50;6.32;;;;;;;;;;5113992;28;20051;-89
2024/01/28 07:57:21;;;;;;;16.95;7.50;;;;;;;;;;5120673;27;20042;-86
2024/01/28 07:59:47;;;;;;;;;;;;;;;;;;5101817;27;20101;-90
2024/01/28 08:02:13;;;;;;;18.55;6.40;;;;;;;;;;5113777;28;20265;-89
2024/01/28 08:04:39;;;;;;;;;;;;;;;;;;5097403;28;20044;-89
2024/01/28 08:07:05;;;;;;;15.30;6.22;;;;;;;;;;5108736;27;20390;-88
2024/01/28 08:09:33;;;;;;;20.42;6.60;;;;;;;;;;5133298;27;20446;-85
2024/01/28 08:11:59;;;;;;;17.48;6.03;;;;;;;;;;5117435;27;20551;-85
2024/01/28 08:14:27;;;;;;;15.38;6.55;;;;;;;;;;5112355;27;20481;-89
2024/01/28 08:16:56;;;;;;;19.23;6.00;;;;;;;;;;5096568;28;20040;-90
2024/01/28 08:19:22;;;;;;;14.90;5.93;;;;;;;;;;5104025;27;20058;-91
2024/01/28 08:21:48;;;;;;;;;;;;;;;;;;5095979;28;20051;-90
2024/01/28 08:24:14;;;;;;;16.63;6.50;;;;;;;;;;5113751;28;19983;-90
2024/01/28 08:26:40;;;;;;;14.95;5.85;;;;;;;;;;5096062;28;20062;-89
2024/01/28 08:29:06;;;;;;;;;;;;;;;;;;5117927;27;20043;-90
2024/01/28 08:31:32;;;;;;;16.08;6.22;;;;;;;;;;5116034;27;19941;-90
2024/01/28 08:34:00;;;;;;;;;;;;;;;;;;5100251;27;20047;-90
2024/01/28 08:36:27;;;;;;;14.32;5.88;;;;;;;;;;5135010;27;19923;-91
2024/01/28 08:38:53;;;;;;;14.15;6.72;;;;;;;;;;5137305;27;20107;-88
2024/01/28 08:41:19;;;;;;;14.85;6.53;;;;;;;;;;5134197;27;20038;-89
2024/01/28 08:43:45;;;;;;;16.40;6.47;;;;;;;;;;5119354;27;20399;-88
2024/01/28 08:46:11;;;;;;;15.25;5.22;;;;;;;;;;5134090;27;20551;-88
2024/01/28 08:48:37;;;;;;;16.30;5.68;;;;;;;;;;5132654;27;20122;-89
2024/01/28 08:51:03;;;;;;;;;;;;;;;;;;5118708;27;20051;-88
2024/01/28 08:53:29;;;;;;;14.77;5.72;;;;;;;;;;5136107;27;20351;-88
2024/01/28 08:55:56;;;;;;;12.85;5.55;;;;;;;;;;5136558;27;20046;-88
2024/01/28 08:58:22;;;;;;;15.25;5.35;;;;;;;;;;5119582;27;20069;-91
2024/01/28 09:00:48;;;;;;;15.02;6.20;;;;;;;;;;5109018;27;20043;-87
2024/01/28 09:03:14;;;;;;;;;;;;;;;;;;5114847;27;20123;-87
2024/01/28 09:05:40;;;;;;;13.15;4.68;;;;;;;;;;5113511;27;20013;-88
2024/01/28 09:08:06;;;;;;;14.07;5.22;;;;;;;;;;5115737;27;20077;-89
2024/01/28 09:10:32;;;;;;;10.57;4.35;;;;;;;;;;5092055;27;20043;-86
2024/01/28 09:12:58;;;;;;;17.80;5.15;;;;;;;;;;5118615;27;20087;-86
2024/01/28 09:15:25;;;;;;;;;;;;;;;;;;5119794;27;20479;-96
2024/01/28 09:17:51;;;;;;;13.82;4.80;;;;;;;;;;5119548;27;19926;-91
2024/01/28 09:20:17;;;;;;;;;;;;;;;;;;5133063;27;20042;-91
2024/01/28 09:22:43;;;;;;;14.35;4.72;;;;;;;;;;5119487;27;19925;-91
2024/01/28 09:25:09;;;;;;;11.40;4.97;;;;;;;;;;5103145;27;20053;-90
2024/01/28 09:27:35;;;;;;;25.75;6.55;;;;;;;;;;5115329;27;20083;-89
2024/01/28 09:30:01;;;;;;;;;;;;;;;;;;5119318;27;20062;-92
2024/01/28 09:32:27;;;;;;;12.55;4.30;;;;;;;;;;5119247;27;19919;-87
2024/01/28 09:34:53;;;;;;;13.27;5.13;;;;;;;;;;5101709;27;20045;-90
2024/01/28 09:37:20;;;;;;;15.13;4.80;;;;;;;;;;5119336;27;20043;-89
2024/01/28 09:39:46;;;;;;;;;;;;;;;;;;5135887;27;20049;-89
2024/01/28 09:42:17;;;;;;;11.32;4.50;;;;;;;;;;5115805;27;19919;-89
2024/01/28 09:44:43;;;;;;;14.30;4.72;;;;;;;;;;5098696;28;20050;-89
2024/01/28 09:47:09;;;;;;;;;;;;;;;;;;5099313;28;20096;-90
2024/01/28 09:49:41;;;;;;;9.80;4.32;;;;;;;;;;5115818;28;19919;-89
2024/01/28 09:52:11;;;;;;;11.60;4.82;;;;;;;;;;5098151;28;20043;-90
2024/01/28 09:54:39;;;;;;;13.73;5.20;;;;;;;;;;5115473;28;20047;-89
2024/01/28 09:57:07;;;;;;;10.23;4.53;;;;;;;;;;5098695;28;20545;-89
2024/01/28 09:59:36;;;;;;;12.55;5.22;;;;;;;;;;5100574;27;20054;-89
2024/01/28 10:02:05;;;;;;;11.75;4.30;;;;;;;;;;5129102;27;20368;-89
2024/01/28 10:04:32;;;;;;;11.02;4.22;;;;;;;;;;5140920;27;20047;-90
2024/01/28 10:06:59;;;;;;;11.73;4.43;;;;;;;;;;5103606;27;20043;-90
2024/01/28 10:09:29;;;;;;;8.50;4.25;;;;;;;;;;5134399;27;20061;-89
2024/01/28 10:12:02;;;;;;;10.55;4.25;;;;;;;;;;5136147;27;20175;-90
2024/01/28 10:14:28;;;;;;;11.98;4.35;;;;;;;;;;5102705;27;20068;-90
2024/01/28 10:16:57;;;;;;;;;;;;;;;;;;5136172;27;20078;-89
2024/01/28 10:19:23;;;;;;;8.30;3.75;;;;;;;;;;5119692;27;19926;-90
2024/01/28 10:21:49;;;;;;;8.70;3.88;;;;;;;;;;5114144;27;20051;-90
2024/01/28 10:24:16;;;;;;;;;;;;;;;;;;5122507;27;20051;-89
2024/01/28 10:26:44;;;;;;;8.13;4.03;;;;;;;;;;5119040;27;19923;-89
2024/01/28 10:29:14;;;;;;;9.70;4.10;;;;;;;;;;5117377;27;20042;-96
2024/01/28 10:31:48;;;;;;;8.95;3.75;;;;;;;;;;5141706;27;20042;-95
2024/01/28 10:34:14;;;;;;;10.05;4.45;;;;;;;;;;5123878;27;20109;-92
2024/01/28 10:36:48;;;;;;;;;;;;;;;;;;5123187;27;20062;-95
2024/01/28 10:39:22;;;;;;;8.90;3.97;;;;;;;;;;5110324;27;19920;-96
2024/01/28 10:41:56;;;;;;;8.60;3.80;;;;;;;;;;5128953;27;20094;-93
2024/01/28 10:44:22;;;;;;;9.18;4.28;;;;;;;;;;5118643;27;20043;-93
2024/01/28 10:46:53;;;;;;;14.88;3.70;;;;;;;;;;5100051;27;20051;-83
2024/01/28 10:49:24;;;;;;;11.73;4.00;;;;;;;;;;5130274;27;20045;-82
2024/01/28 10:51:52;;;;;;;8.77;3.65;;;;;;;;;;5119122;27;20034;-89
2024/01/28 10:54:19;;;;;;;12.55;4.57;;;;;;;;;;5130904;27;20117;-87
2024/01/28 10:56:46;;;;;;;10.68;3.70;;;;;;;;;;5107734;27;20095;-87
2024/01/28 10:59:12;;;;;;;10.93;3.80;;;;;;;;;;5139034;27;20030;-87
2024/01/28 11:01:38;;;;;;;;;;;;;;;;;;5104009;27;20042;-88
2024/01/28 11:04:05;;;;;;;8.20;3.75;;;;;;;;;;5131695;27;20589;-88
2024/01/28 11:06:31;;;;;;;9.18;4.88;;;;;;;;;;5131663;27;20049;-86
2024/01/28 11:08:58;;;;;;;12.05;5.10;;;;;;;;;;5112471;27;20045;-86
2024/01/28 11:11:24;;;;;;;10.95;3.97;;;;;;;;;;5101956;27;20050;-86
2024/01/28 11:13:51;;;;;;;9.27;4.10;;;;;;;;;;5113235;27;20039;-87
2024/01/28 11:16:18;;;;;;;;;;;;;;;;;;5114071;27;20043;-87
2024/01/28 11:19:00;;;;;;;9.32;3.35;;;;;;;;;;5115195;27;20287;-86
2024/01/28 11:21:27;;;;;;;9.25;2.92;;;;;;;;;;5119150;27;20133;-87
2024/01/28 11:23:54;;;;;;;8.77;3.20;;;;;;;;;;5113892;27;20042;-88
2024/01/28 11:26:21;;;;;;;7.05;2.92;;;;;;;;;;5117219;27;20039;-88
2024/01/28 11:28:52;;;;;;;8.05;3.00;;;;;;;;;;5129595;27;20043;-87
2024/01/28 11:31:34;;;;;;;7.22;3.00;;;;;;;;;;5108995;27;20086;-86
2024/01/28 11:34:13;;;;;;;8.82;2.97;;;;;;;;;;5108628;27;20058;-88
2024/01/28 11:36:42;;;;;;;7.18;2.97;;;;;;;;;;5127430;27;20050;-88
2024/01/28 11:39:11;;;;;;;9.00;2.95;;;;;;;;;;5128617;27;20133;-89
2024/01/28 11:41:38;;;;;;;4.32;2.38;;;;;;;;;;5121503;27;20089;-87
2024/01/28 11:44:05;;;;;;;5.30;2.30;;;;;;;;;;5117843;27;20050;-86
2024/01/28 11:46:32;;;;;;;5.28;2.58;;;;;;;;;;5118348;27;20091;-86
2024/01/28 11:48:58;;;;;;;9.07;2.88;;;;;;;;;;5137618;27;20047;-86
2024/01/28 11:51:24;;;;;;;;;;;;;;;;;;5116597;27;20091;-87
2024/01/28 11:53:50;;;;;;;6.15;2.40;;;;;;;;;;5112071;27;20006;-86
2024/01/28 11:56:16;;;;;;;;;;;;;;;;;;5128833;27;20047;-89
2024/01/28 11:58:42;;;;;;;7.38;2.80;;;;;;;;;;5112796;27;19919;-87
2024/01/28 12:01:08;;;;;;;;;;;;;;;;;;5119853;27;20122;-89
2024/01/28 12:03:34;;;;;;;6.68;2.40;;;;;;;;;;5121313;27;19962;-89
2024/01/28 12:06:01;;;;;;;4.38;2.22;;;;;;;;;;5119687;27;20042;-88
2024/01/28 12:08:27;;;;;;;;;;;;;;;;;;5107735;27;20100;-88
2024/01/28 12:10:59;;;;;;;5.28;2.42;;;;;;;;;;5130694;27;19919;-84
2024/01/28 12:13:25;;;;;;;6.70;2.90;;;;;;;;;;5128610;27;20053;-88
2024/01/28 12:15:54;;;;;;;;;;;;;;;;;;5103251;27;20050;-90
2024/01/28 12:18:22;;;;;;;6.90;2.50;;;;;;;;;;5116851;27;20361;-84
2024/01/28 12:20:51;;;;;;;6.55;2.78;;;;;;;;;;5135474;27;20042;-84
2024/01/28 12:23:20;;;;;;;5.43;2.40;;;;;;;;;;5117220;27;20043;-88
2024/01/28 12:25:46;;;;;;;6.43;2.40;;;;;;;;;;5121140;27;20046;-89
2024/01/28 12:28:12;;;;;;;;;;;;;;;;;;5138340;27;20079;-90
2024/01/28 12:30:38;;;;;;;6.30;2.50;;;;;;;;;;5117281;27;19926;-89
2024/01/28 12:33:04;;;;;;;;;;;;;;;;;;5121212;27;20051;-90
2024/01/28 12:35:30;;;;;;;6.05;2.30;;;;;;;;;;5136505;27;19926;-89
2024/01/28 12:37:56;;;;;;;;;;;;;;;;;;5117993;27;20038;-89
2024/01/28 12:40:22;;;;;;;5.03;2.15;;;;;;;;;;5111740;27;19919;-89
2024/01/28 12:42:48;;;;;;;;;;;;;;;;;;5124055;27;20041;-89
2024/01/28 12:45:14;;;;;;;3.78;1.88;;;;;;;;;;5131018;27;19927;-88
2024/01/28 12:47:40;;;;;;;7.35;2.60;;;;;;;;;;5137854;27;20047;-89
2024/01/28 12:50:06;;;;;;;;;;;;;;;;;;5136400;27;20054;-87
2024/01/28 12:52:33;;;;;;;6.97;2.30;;;;;;;;;;5128855;27;19926;-88
2024/01/28 12:54:59;;;;;;;5.22;2.30;;;;;;;;;;5131643;27;20047;-89
2024/01/28 12:57:25;;;;;;;4.97;2.33;;;;;;;;;;5128541;27;20039;-86
2024/01/28 12:59:51;;;;;;;3.80;2.05;;;;;;;;;;5119245;27;20050;-89
2024/01/28 13:02:17;;;;;;;6.35;2.20;;;;;;;;;;5119661;27;20051;-89
2024/01/28 13:04:43;;;;;;;;;;;;;;;;;;5137673;27;20043;-88
2024/01/28 13:07:10;;;;;;;4.53;2.17;;;;;;;;;;5114753;27;19926;-88
2024/01/28 13:09:36;;;;;;;5.35;2.33;;;;;;;;;;5131452;27;20089;-88
2024/01/28 13:12:02;;;;;;;5.15;2.17;;;;;;;;;;5135990;27;20046;-88
2024/01/28 13:14:28;;;;;;;;;;;;;;;;;;5119547;27;20497;-90
2024/01/28 13:16:54;;;;;;;7.03;2.40;;;;;;;;;;5135379;27;20005;-89
2024/01/28 13:19:20;;;;;;;4.22;2.15;;;;;;;;;;5118327;27;20128;-85
2024/01/28 13:21:46;;;;;;;7.05;2.53;;;;;;;;;;5125456;27;20043;-88
2024/01/28 13:24:12;;;;;;;2.40;1.85;;;;;;;;;;5097143;27;20054;-77
2024/01/28 13:26:38;;;;;;;;;;;;;;;;;;5098021;27;20109;-77
2024/01/28 13:29:04;;;;;;;6.03;1.90;;;;;;;;;;5114169;27;19919;-77
2024/01/28 13:31:30;;;;;;;4.95;2.15;;;;;;;;;;5115446;27;20054;-76
2024/01/28 13:33:57;;;;;;;6.68;2.25;;;;;;;;;;5115963;27;20529;-77
2024/01/28 13:36:23;;;;;;;4.72;2.33;;;;;;;;;;5095037;28;20043;-76
2024/01/28 13:38:49;;;;;;;6.55;2.20;;;;;;;;;;5097469;28;20458;-77
2024/01/28 13:41:15;;;;;;;6.20;2.30;;;;;;;;;;5097182;28;20039;-76
2024/01/28 13:43:42;;;;;;;7.85;2.13;;;;;;;;;;5107691;27;20488;-77
2024/01/28 13:46:08;;;;;;;5.15;2.30;;;;;;;;;;5134106;27;20042;-76
2024/01/28 13:48:35;;;;;;;3.50;1.90;;;;;;;;;;5115810;27;20039;-76
2024/01/28 13:51:01;;;;;;;5.85;2.40;;;;;;;;;;5112736;28;20089;-79
2024/01/28 13:53:27;;;;;;;4.28;2.00;;;;;;;;;;5097193;28;20047;-77
2024/01/28 13:55:53;;;;;;;;;;;;;;;;;;5098093;28;20043;-77
2024/01/28 13:58:19;;;;;;;5.45;2.20;;;;;;;;;;5123800;27;20413;-76
2024/01/28 14:00:45;;;;;;;6.32;2.20;;;;;;;;;;5100785;27;20184;-76
2024/01/28 14:03:11;;;;;;;;;;;;;;;;;;5118179;27;20054;-76
2024/01/28 14:05:40;;;;;;;4.40;2.30;;;;;;;;;;5133273;27;20374;-78
2024/01/28 14:08:06;;;;;;;5.43;2.45;;;;;;;;;;5134644;27;20407;-78
2024/01/28 14:10:32;;;;;;;5.55;2.28;;;;;;;;;;5134889;27;20046;-76
2024/01/28 14:12:58;;;;;;;;;;;;;;;;;;5116400;27;20047;-76
2024/01/28 14:15:24;;;;;;;6.82;2.40;;;;;;;;;;5126930;28;19919;-76
2024/01/28 14:17:50;;;;;;;;;;;;;;;;;;5121600;28;20061;-76
2024/01/28 14:20:16;;;;;;;4.97;2.10;;;;;;;;;;5126121;28;20392;-76
2024/01/28 14:22:42;;;;;;;5.97;2.17;;;;;;;;;;5131477;27;20053;-77
2024/01/28 14:25:08;;;;;;;6.53;2.60;;;;;;;;;;5111746;28;20039;-78
2024/01/28 14:27:34;;;;;;;5.63;2.33;;;;;;;;;;5133393;27;20054;-76
2024/01/28 14:30:00;;;;;;;6.32;2.42;;;;;;;;;;5133774;27;20057;-76
2024/01/28 14:32:27;;;;;;;7.50;2.63;;;;;;;;;;5116404;27;20054;-76
2024/01/28 14:34:53;;;;;;;5.68;2.55;;;;;;;;;;5133173;27;20043;-76
2024/01/28 14:37:19;;;;;;;;;;;;;;;;;;5107566;28;20068;-76
2024/01/28 14:39:45;;;;;;;7.63;2.40;;;;;;;;;;5110002;27;19919;-76
2024/01/28 14:42:12;;;;;;;5.60;2.20;;;;;;;;;;5116571;27;20057;-76
2024/01/28 14:44:38;;;;;;;6.90;2.50;;;;;;;;;;5130686;27;20039;-81
2024/01/28 14:47:04;;;;;;;5.68;2.38;;;;;;;;;;5134198;27;20046;-81
2024/01/28 14:49:31;;;;;;;5.88;2.60;;;;;;;;;;5120441;27;20047;-81
2024/01/28 14:51:57;;;;;;;9.50;2.15;;;;;;;;;;5136109;27;20467;-80
2024/01/28 14:54:24;;;;;;;;;;;;;;;;;;5137857;27;20385;-81
2024/01/28 14:56:51;;;;;;;6.60;2.40;;;;;;;;;;5138111;27;19926;-88
2024/01/28 14:59:17;;;;;;;6.82;2.30;;;;;;;;;;5138410;27;20130;-84